Time;durP1;ratioP1;P1;durP2;ratioP2;P2;SDS_P1;SDS_P2;PMS_P1;PMS_P2;Temp;Humidity;BMP_temperature;BMP_pressure;BME280_temperature;BME280_humidity;BME280_pressure;Samples;Min_cycle;Max_cycle;Signal;HPM_P1;HPM_P2
2023/01/28 00:01:05;;;;;;;;;25.00;21.00;;;;;7.04;65.35;102253.59;5075418;27;45512;-65
2023/01/28 00:03:31;;;;;;;;;30.00;26.75;;;;;6.90;65.25;102224.31;5059395;28;45378;-65
2023/01/28 00:06:14;;;;;;;;;29.00;24.75;;;;;7.03;65.63;102246.50;5071261;28;45589;-65
2023/01/28 00:08:40;;;;;;;;;31.00;22.75;;;;;6.85;65.13;102220.75;5069133;28;45314;-65
2023/01/28 00:11:07;;;;;;;;;25.25;19.75;;;;;7.02;65.38;102250.06;5077720;28;45434;-65
2023/01/28 00:13:33;;;;;;;;;21.75;20.75;;;;;7.05;65.13;102261.59;5065769;27;45421;-65
2023/01/28 00:16:01;;;;;;;;;33.75;25.25;;;;;7.03;65.15;102271.31;5064523;28;46287;-65
2023/01/28 00:18:27;;;;;;;;;20.00;19.25;;;;;6.99;65.68;102252.69;5063835;28;48112;-65
2023/01/28 00:21:04;;;;;;;;;26.50;20.75;;;;;7.05;65.13;102261.59;5041490;28;45541;-65
2023/01/28 00:23:32;;;;;;;;;24.75;23.25;;;;;7.10;65.42;102256.31;5076024;28;45405;-65
2023/01/28 00:25:58;;;;;;;;;24.50;20.50;;;;;7.10;64.95;102258.06;5078076;28;45310;-65
2023/01/28 00:28:24;;;;;;;;;21.50;17.75;;;;;7.11;65.47;102251.88;5062248;28;45547;-65
2023/01/28 00:30:49;;;;;;;;;20.50;19.50;;;;;7.07;64.95;102258.03;5058670;28;45485;-65
2023/01/28 00:33:15;;;;;;;;;24.75;21.75;;;;;7.00;65.20;102246.47;5066157;28;45393;-65
2023/01/28 00:35:41;;;;;;;;;21.25;20.00;;;;;6.98;64.41;102248.25;5043938;28;45443;-65
2023/01/28 00:38:07;;;;;;;;;24.75;24.75;;;;;6.90;65.14;102242.91;5070416;27;46615;-65
2023/01/28 00:40:33;;;;;;;;;25.25;20.75;;;;;6.98;64.92;102258.88;5076514;28;45436;-65
2023/01/28 00:42:58;;;;;;;;;28.00;22.25;;;;;7.04;64.56;102267.75;5066680;28;45475;-64
2023/01/28 00:45:24;;;;;;;;;25.25;22.00;;;;;7.03;64.64;102258.03;5079803;27;45529;-65
2023/01/28 00:47:49;;;;;;;;;21.50;17.25;;;;;7.01;65.00;102246.50;5090155;27;45389;-65
2023/01/28 00:50:15;;;;;;;;;26.25;20.25;;;;;6.96;64.38;102237.63;5061679;28;46102;-65
2023/01/28 00:52:40;;;;;;;;;21.25;18.75;;;;;7.00;64.95;102236.78;5058681;28;45315;-65
2023/01/28 00:55:06;;;;;;;;;25.00;20.00;;;;;6.97;64.59;102238.53;5080193;27;45313;-65
2023/01/28 00:57:32;;;;;;;;;28.25;21.75;;;;;6.92;64.39;102235.84;5069627;27;46517;-65
2023/01/28 00:59:57;;;;;;;;;4.00;3.50;;;;;6.89;64.28;102251.72;5058252;28;45412;-65
2023/01/28 01:02:22;;;;;;;;;18.50;16.50;;;;;6.90;65.04;102253.53;5058917;28;45247;-65
2023/01/28 01:05:00;;;;;;;;;19.00;17.25;;;;;6.85;65.10;102242.88;5062007;28;45487;-65
2023/01/28 01:07:40;;;;;;;;;22.00;18.25;;;;;6.88;64.78;102246.41;5061803;28;46000;-65
2023/01/28 01:10:06;;;;;;;;;20.25;18.25;;;;;6.86;64.79;102247.28;5062039;28;45504;-65
2023/01/28 01:12:32;;;;;;;;;21.25;19.00;;;;;6.75;64.75;102229.50;5070361;28;45671;-65
2023/01/28 01:14:57;;;;;;;;;20.25;19.50;;;;;6.85;64.88;102255.25;5078789;28;45267;-65
2023/01/28 01:17:22;;;;;;;;;23.00;20.00;;;;;6.90;64.67;102274.75;5069393;28;45296;-65
2023/01/28 01:19:48;;;;;;;;;15.75;14.00;;;;;6.82;64.42;102264.06;5067652;27;45752;-65
2023/01/28 01:22:13;;;;;;;;;16.25;15.50;;;;;6.86;64.63;102275.59;5084608;27;45675;-65
2023/01/28 01:24:39;;;;;;;;;22.00;19.75;;;;;6.81;64.33;102275.56;5078725;27;45322;-65
2023/01/28 01:27:05;;;;;;;;;24.50;21.50;;;;;6.80;64.77;102263.19;5061545;28;45454;-65
2023/01/28 01:29:32;;;;;;;;;26.50;24.25;;;;;6.83;64.60;102264.94;5060222;28;45394;-65
2023/01/28 01:31:58;;;;;;;;;23.00;20.50;;;;;6.88;64.56;102263.22;5069912;28;45489;-64
2023/01/28 01:34:24;;;;;;;;;21.75;20.75;;;;;6.90;64.05;102281.81;5061641;28;45418;-65
2023/01/28 01:36:49;;;;;;;;;20.25;18.75;;;;;6.82;64.41;102285.31;5076638;28;45994;-63
2023/01/28 01:39:15;;;;;;;;;21.25;19.50;;;;;6.77;63.96;102278.19;5064061;28;45646;-73
2023/01/28 01:41:40;;;;;;;;;17.00;16.00;;;;;6.73;64.47;102285.22;5064105;28;45666;-65
2023/01/28 01:44:06;;;;;;;;;19.25;18.25;;;;;6.68;64.78;102268.38;5069386;28;45284;-64
2023/01/28 01:46:32;;;;;;;;;21.75;19.25;;;;;6.75;64.69;102279.94;5065212;27;48086;-65
2023/01/28 01:49:12;;;;;;;;;16.50;13.75;;;;;6.76;64.23;102285.25;5062986;28;47120;-66
2023/01/28 01:51:39;;;;;;;;;20.75;18.50;;;;;6.74;64.30;102273.75;5061501;28;45409;-65
2023/01/28 01:54:04;;;;;;;;;20.75;18.00;;;;;6.80;64.39;102275.53;5073460;28;45408;-65
2023/01/28 01:56:37;;;;;;;;;14.25;11.50;;;;;6.82;64.14;102279.13;5072600;27;45597;-65
2023/01/28 01:59:03;;;;;;;;;20.25;15.50;;;;;6.78;64.37;102270.25;5066186;28;45732;-65
2023/01/28 02:01:30;;;;;;;;;19.25;17.75;;;;;6.82;64.69;102279.13;5065496;28;45421;-65
2023/01/28 02:04:09;;;;;;;;;20.25;16.25;;;;;6.84;64.13;102280.00;5066278;28;45367;-65
2023/01/28 02:06:36;;;;;;;;;21.25;20.50;;;;;6.71;64.73;102262.22;5065653;28;46454;-65
2023/01/28 02:09:05;;;;;;;;;17.25;15.25;;;;;6.76;64.33;102264.03;5061363;28;45469;-65
2023/01/28 02:11:33;;;;;;;;;23.75;19.00;;;;;6.89;64.27;102272.09;5071996;27;45706;-65
2023/01/28 02:14:02;;;;;;;;;19.00;15.25;;;;;6.80;64.59;102251.66;5059021;28;45347;-65
2023/01/28 02:16:29;;;;;;;;;12.00;10.50;;;;;6.92;63.96;102272.13;5067612;28;46378;-65
2023/01/28 02:18:54;;;;;;;;;24.50;22.00;;;;;6.90;64.19;102287.13;5075971;27;45782;-65
2023/01/28 02:21:44;;;;;;;;;18.25;17.25;;;;;6.92;63.91;102290.69;5066115;28;45240;-65
2023/01/28 02:24:44;;;;;;;;;24.25;20.00;;;;;6.89;64.01;102277.41;5080291;28;45422;-65
2023/01/28 02:27:09;;;;;;;;;21.75;19.50;;;;;6.85;63.94;102288.00;5069566;28;47197;-65
2023/01/28 02:29:49;;;;;;;;;17.50;16.25;;;;;6.81;63.82;102278.22;5076788;28;45327;-65
2023/01/28 02:32:26;;;;;;;;;20.00;19.00;;;;;6.90;64.01;102280.06;5063877;28;45465;-65
2023/01/28 02:34:57;;;;;;;;;16.00;15.50;;;;;6.93;64.01;102287.16;5074307;28;45515;-65
2023/01/28 02:37:28;;;;;;;;;30.75;25.75;;;;;6.92;64.03;102290.69;5060768;28;46280;-65
2023/01/28 02:39:58;;;;;;;;;26.50;22.25;;;;;6.89;63.60;102286.25;5076793;28;45401;-64
2023/01/28 02:42:30;;;;;;;;;15.75;13.75;;;;;6.74;64.05;102263.13;5067280;28;45411;-64
2023/01/28 02:44:56;;;;;;;;;22.50;15.50;;;;;6.76;63.65;102271.97;5072676;28;45571;-63
2023/01/28 02:50:13;;;;;;;;;20.50;18.00;;;;;6.90;63.61;102289.78;5077079;28;45710;-64
2023/01/28 02:56:02;;;;;;;;;23.00;18.25;;;;;6.86;63.62;102294.19;5068853;28;45466;-64
2023/01/28 02:58:43;;;;;;;;;19.00;15.75;;;;;6.73;63.59;102277.25;5070325;28;45522;-64
2023/01/28 03:01:41;;;;;;;;;24.25;18.75;;;;;6.76;64.04;102279.94;5069358;28;45690;-64
2023/01/28 03:04:25;;;;;;;;;27.00;22.75;;;;;6.70;63.64;102265.72;5074109;27;45513;-64
2023/01/28 03:06:56;;;;;;;;;24.75;19.75;;;;;6.74;64.09;102273.75;5063309;28;45588;-65
2023/01/28 03:09:25;;;;;;;;;24.75;21.00;;;;;6.80;63.64;102288.81;5069842;28;45639;-64
2023/01/28 03:37:32;;;;;;;;;25.00;18.25;;;;;6.58;63.30;102307.22;5068031;28;45342;-65
2023/01/28 03:40:03;;;;;;;;;26.75;23.50;;;;;6.55;64.22;102301.91;5076265;28;45572;-65
2023/01/28 03:42:30;;;;;;;;;20.00;19.00;;;;;6.49;63.87;102299.16;5077547;27;45716;-65
2023/01/28 03:44:56;;;;;;;;;24.00;21.00;;;;;6.44;63.50;102314.16;5075525;28;45298;-65
2023/01/28 03:47:24;;;;;;;;;21.00;21.00;;;;;6.37;63.76;102299.06;5071273;27;45336;-65
2023/01/28 03:49:51;;;;;;;;;12.75;12.75;;;;;6.37;64.15;102294.63;5059401;28;45338;-64
2023/01/28 03:52:20;;;;;;;;;24.25;19.00;;;;;6.37;63.78;102301.72;5064635;28;46113;-65
2023/01/28 03:54:47;;;;;;;;;24.00;22.50;;;;;6.30;63.85;102293.69;5072618;28;45301;-64
2023/01/28 03:57:14;;;;;;;;;20.75;18.75;;;;;6.23;63.95;102280.34;5059350;28;45334;-65
2023/01/28 03:59:40;;;;;;;;;24.25;19.75;;;;;6.33;63.98;102306.06;5059027;28;45398;-65
2023/01/28 04:02:06;;;;;;;;;24.50;21.75;;;;;6.44;63.95;102316.81;5060556;28;45489;-65
2023/01/28 04:04:31;;;;;;;;;27.00;20.25;;;;;6.34;64.10;102301.69;5072687;28;46078;-65
2023/01/28 04:06:57;;;;;;;;;22.50;19.50;;;;;6.45;63.36;102321.25;5076780;28;45374;-65
2023/01/28 04:09:23;;;;;;;;;21.00;18.75;;;;;6.36;63.88;102305.22;5063694;28;45362;-65
2023/01/28 04:11:49;;;;;;;;;22.25;19.25;;;;;6.24;63.33;102303.34;5058589;28;45401;-64
2023/01/28 04:14:16;;;;;;;;;26.25;21.00;;;;;6.39;63.54;102332.66;5058988;28;45522;-65
2023/01/28 04:16:41;;;;;;;;;27.75;23.25;;;;;6.40;63.66;102341.50;5068963;28;45380;-65
2023/01/28 04:19:08;;;;;;;;;32.00;25.00;;;;;6.34;64.42;102325.56;5059986;28;45555;-65
2023/01/28 04:21:34;;;;;;;;;17.00;15.75;;;;;6.44;64.06;102338.03;5070276;28;46125;-64
2023/01/28 04:24:00;;;;;;;;;22.75;22.00;;;;;6.51;64.47;102345.16;5079078;27;45255;-64
2023/01/28 04:26:26;;;;;;;;;21.25;20.25;;;;;6.53;63.36;102343.41;5062630;27;45393;-65
2023/01/28 04:28:51;;;;;;;;;21.00;17.50;;;;;6.54;63.89;102339.91;5068233;28;45738;-65
2023/01/28 04:31:17;;;;;;;;;20.50;16.00;;;;;6.36;63.31;102310.53;5064983;28;46360;-65
2023/01/28 04:33:42;;;;;;;;;16.75;16.00;;;;;6.42;63.44;102326.53;5058515;28;45460;-65
2023/01/28 04:36:08;;;;;;;;;23.75;18.00;;;;;6.52;63.79;102341.66;5070272;28;45387;-64
2023/01/28 04:38:33;;;;;;;;;24.75;21.75;;;;;6.46;63.85;102333.63;5074073;28;45443;-64
2023/01/28 04:40:58;;;;;;;;;24.50;20.25;;;;;6.41;63.15;102336.22;5075014;28;46031;-65
2023/01/28 04:43:24;;;;;;;;;24.25;19.50;;;;;6.48;63.95;102347.78;5077703;28;45487;-65
2023/01/28 04:45:49;;;;;;;;;14.25;9.75;;;;;6.53;63.76;102356.69;5077351;28;45473;-65
2023/01/28 04:48:16;;;;;;;;;30.00;23.50;;;;;6.46;63.76;102341.59;5075634;28;45628;-65
2023/01/28 04:50:42;;;;;;;;;29.75;24.50;;;;;6.55;63.38;102356.69;5072510;28;45321;-65
2023/01/28 04:53:07;;;;;;;;;26.25;21.75;;;;;6.46;63.62;102352.19;5086854;27;45444;-65
2023/01/28 04:55:33;;;;;;;;;26.75;21.50;;;;;6.42;63.76;102343.31;5070797;28;45468;-65
2023/01/28 04:57:58;;;;;;;;;22.50;19.00;;;;;6.45;63.30;102358.41;5070319;28;45979;-65
2023/01/28 05:00:24;;;;;;;;;25.00;21.50;;;;;6.47;63.32;102354.00;5078086;28;45642;-66
2023/01/28 05:02:49;;;;;;;;;20.50;19.50;;;;;6.46;63.38;102346.88;5083236;27;45382;-65
2023/01/28 05:05:14;;;;;;;;;18.50;16.00;;;;;6.58;63.43;102368.25;5080392;27;45836;-65
2023/01/28 05:07:40;;;;;;;;;28.25;19.75;;;;;6.54;63.33;102361.13;5061818;28;45371;-65
2023/01/28 05:10:05;;;;;;;;;23.50;20.00;;;;;6.53;63.38;102353.16;5070909;28;45392;-65
2023/01/28 05:12:32;;;;;;;;;27.50;23.50;;;;;6.59;63.67;102358.53;5070198;28;45609;-65
2023/01/28 05:15:01;;;;;;;;;30.75;22.50;;;;;6.57;63.47;102355.84;5061751;28;45655;-65
2023/01/28 05:17:27;;;;;;;;;28.50;25.50;;;;;6.57;63.51;102357.63;5046936;28;45758;-65
2023/01/28 05:19:53;;;;;;;;;30.00;23.25;;;;;6.51;63.83;102350.47;5074998;28;46227;-65
2023/01/28 05:22:19;;;;;;;;;22.25;20.50;;;;;6.64;63.19;102368.31;5073067;28;45362;-65
2023/01/28 05:24:44;;;;;;;;;31.25;27.75;;;;;6.56;63.26;102346.09;5067800;28;45445;-65
2023/01/28 05:27:10;;;;;;;;;21.50;20.00;;;;;6.53;62.86;102347.84;5061543;28;45602;-65
2023/01/28 05:29:35;;;;;;;;;24.25;20.75;;;;;6.52;62.76;102359.34;5071194;28;47400;-65
2023/01/28 05:32:01;;;;;;;;;23.50;19.75;;;;;6.41;63.30;102354.78;5079489;28;45881;-65
2023/01/28 05:34:26;;;;;;;;;29.50;26.75;;;;;6.53;63.28;102371.72;5077429;28;45486;-65
2023/01/28 05:36:51;;;;;;;;;26.00;22.75;;;;;6.47;63.23;102360.16;5078728;28;45390;-65
2023/01/28 05:39:17;;;;;;;;;22.75;18.50;;;;;6.52;63.15;102373.50;5067077;28;47115;-65
2023/01/28 05:41:42;;;;;;;;;24.50;21.50;;;;;6.40;63.41;102361.00;5070910;28;45363;-65
2023/01/28 05:44:07;;;;;;;;;24.25;20.75;;;;;6.37;63.69;102357.41;5073695;28;45379;-66
2023/01/28 05:46:33;;;;;;;;;28.00;21.25;;;;;6.47;63.32;102364.59;5075219;27;45356;-65
2023/01/28 05:48:58;;;;;;;;;26.75;21.00;;;;;6.58;63.71;102368.25;5072095;28;47230;-65
2023/01/28 05:51:23;;;;;;;;;26.50;23.50;;;;;6.53;63.73;102356.69;5077578;28;45538;-65
2023/01/28 05:53:49;;;;;;;;;29.75;24.50;;;;;6.49;63.12;102358.41;5066165;28;45578;-65
2023/01/28 05:56:14;;;;;;;;;30.25;21.50;;;;;6.52;63.14;102354.91;5080133;28;45639;-65
2023/01/28 05:58:39;;;;;;;;;30.75;27.25;;;;;6.58;63.66;102370.91;5077827;27;46107;-65
2023/01/28 06:01:04;;;;;;;;;28.00;23.50;;;;;6.52;63.27;102364.66;5078149;28;45367;-64
2023/01/28 06:03:30;;;;;;;;;30.00;26.00;;;;;6.57;63.11;102374.44;5061132;28;45484;-65
2023/01/28 06:05:55;;;;;;;;;27.75;20.50;;;;;6.59;63.17;102375.31;5068301;27;45266;-65
2023/01/28 06:08:20;;;;;;;;;23.50;22.75;;;;;6.58;63.26;102370.91;5074490;28;45467;-65
2023/01/28 06:10:46;;;;;;;;;26.00;23.50;;;;;6.52;62.91;102362.00;5091759;27;45761;-65
2023/01/28 06:13:11;;;;;;;;;33.25;25.75;;;;;6.57;62.99;102370.91;5077467;27;45305;-65
2023/01/28 06:15:37;;;;;;;;;25.00;23.25;;;;;6.56;63.42;102367.31;5061056;28;45298;-65
2023/01/28 06:18:02;;;;;;;;;26.00;24.00;;;;;6.57;62.59;102385.03;5072308;28;48228;-65
2023/01/28 06:20:28;;;;;;;;;26.75;22.00;;;;;6.46;62.93;102370.75;5066291;28;45373;-65
2023/01/28 06:22:53;;;;;;;;;24.75;22.00;;;;;6.53;63.36;102385.88;5073920;28;45488;-65
2023/01/28 06:25:19;;;;;;;;;26.00;21.00;;;;;6.51;63.14;102400.00;5093182;27;45289;-64
2023/01/28 06:27:45;;;;;;;;;23.25;21.75;;;;;6.41;63.16;102381.31;5074524;27;46943;-64
2023/01/28 06:30:11;;;;;;;;;26.00;22.50;;;;;6.42;63.29;102387.53;5064962;28;45875;-64
2023/01/28 06:32:36;;;;;;;;;20.75;16.75;;;;;6.38;63.74;102396.31;5072428;28;45525;-65
2023/01/28 06:35:02;;;;;;;;;28.25;23.50;;;;;6.43;63.51;102407.88;5072458;28;45469;-65
2023/01/28 06:37:27;;;;;;;;;31.50;28.50;;;;;6.37;63.47;102389.25;5061118;28;48025;-65
2023/01/28 06:39:52;;;;;;;;;22.75;21.00;;;;;6.36;63.47;102392.75;5070589;28;45352;-65
2023/01/28 06:42:18;;;;;;;;;24.00;20.00;;;;;6.41;63.16;102412.28;5064680;28;45405;-65
2023/01/28 06:44:43;;;;;;;;;35.00;29.75;;;;;6.39;63.23;102408.72;5076187;28;45605;-64
2023/01/28 06:47:09;;;;;;;;;20.50;19.50;;;;;6.39;63.09;102406.94;5075580;28;45377;-65
2023/01/28 06:49:35;;;;;;;;;27.75;23.00;;;;;6.38;63.33;102413.16;5075010;28;45416;-65
2023/01/28 06:52:01;;;;;;;;;27.25;20.75;;;;;6.30;63.59;102407.72;5061655;28;45425;-65
2023/01/28 06:54:26;;;;;;;;;36.00;25.00;;;;;6.37;63.68;102415.78;5060252;28;45489;-65
2023/01/28 06:56:51;;;;;;;;;25.25;23.75;;;;;6.33;63.62;102413.94;5063723;28;47246;-65
2023/01/28 06:59:17;;;;;;;;;26.75;24.75;;;;;6.18;63.72;102393.44;5073161;28;45593;-65
2023/01/28 07:01:42;;;;;;;;;23.50;21.75;;;;;6.22;63.28;102406.75;5078080;27;45319;-65
2023/01/28 07:04:08;;;;;;;;;26.50;22.00;;;;;6.21;63.81;102417.34;5068649;27;45492;-65
2023/01/28 07:06:33;;;;;;;;;22.50;21.00;;;;;6.28;63.40;102429.78;5073498;28;47053;-65
2023/01/28 07:08:58;;;;;;;;;25.00;22.00;;;;;6.30;63.36;102425.41;5066493;28;45379;-64
2023/01/28 07:11:24;;;;;;;;;24.75;21.25;;;;;6.30;63.57;102428.94;5073362;28;45524;-64
2023/01/28 07:13:49;;;;;;;;;25.50;20.25;;;;;6.27;63.73;102433.34;5059561;28;45265;-64
2023/01/28 07:16:15;;;;;;;;;25.50;24.25;;;;;6.28;63.70;102421.84;5058900;28;46095;-64
2023/01/28 07:18:40;;;;;;;;;24.50;23.75;;;;;6.33;63.24;102424.53;5072505;28;45450;-64
2023/01/28 07:21:05;;;;;;;;;28.50;23.00;;;;;6.34;63.51;102431.66;5075393;28;45608;-65
2023/01/28 07:23:31;;;;;;;;;23.25;19.75;;;;;6.23;63.41;102405.88;5065590;28;45588;-65
2023/01/28 07:26:01;;;;;;;;;21.00;18.25;;;;;6.39;63.79;102430.81;5073092;28;45487;-64
2023/01/28 07:28:26;;;;;;;;;20.75;17.00;;;;;6.53;63.62;102441.59;5068163;28;45661;-64
2023/01/28 07:30:52;;;;;;;;;24.25;19.00;;;;;6.47;63.12;102430.91;5065496;28;45621;-64
2023/01/28 07:33:17;;;;;;;;;28.50;22.25;;;;;6.59;63.50;102439.00;5059469;28;45284;-65
2023/01/28 07:35:43;;;;;;;;;23.75;18.75;;;;;6.52;62.77;102437.16;5082161;27;46199;-65
2023/01/28 07:38:09;;;;;;;;;28.25;26.75;;;;;6.48;62.63;102441.56;5088414;27;45392;-64
2023/01/28 07:40:34;;;;;;;;;26.50;22.00;;;;;6.45;62.78;102446.81;5061308;27;45931;-65
2023/01/28 07:42:59;;;;;;;;;21.50;20.25;;;;;6.34;62.68;102432.53;5066808;28;45596;-64
2023/01/28 07:45:25;;;;;;;;;31.25;25.25;;;;;6.34;62.85;102440.47;5071619;28;46305;-64
2023/01/28 07:47:55;;;;;;;;;25.75;22.00;;;;;6.47;63.33;102449.50;5065774;28;45679;-64
2023/01/28 07:50:21;;;;;;;;;22.25;20.25;;;;;6.39;62.85;102449.38;5076338;28;45449;-65
2023/01/28 07:52:46;;;;;;;;;24.50;22.75;;;;;6.45;62.57;102448.59;5059900;28;45662;-65
2023/01/28 07:55:15;;;;;;;;;30.50;24.25;;;;;6.42;63.22;102459.16;5061980;27;46875;-64
2023/01/28 07:57:56;;;;;;;;;27.75;25.50;;;;;6.46;63.22;102451.22;5067591;27;45506;-66
2023/01/28 08:00:23;;;;;;;;;24.25;19.00;;;;;6.41;63.12;102444.97;5069561;28;45713;-68
2023/01/28 08:02:49;;;;;;;;;27.50;20.75;;;;;6.49;62.71;102466.31;5068935;28;45607;-69
2023/01/28 08:05:19;;;;;;;;;26.50;23.00;;;;;6.45;62.39;102464.50;5066843;27;46576;-64
2023/01/28 08:07:47;;;;;;;;;25.00;22.75;;;;;6.43;62.82;102461.84;5073150;27;45532;-65
2023/01/28 08:10:13;;;;;;;;;24.00;23.50;;;;;6.45;63.09;102465.38;5088452;27;45476;-65
2023/01/28 08:12:39;;;;;;;;;27.25;23.00;;;;;6.49;63.14;102469.84;5082233;27;45321;-65
2023/01/28 08:15:05;;;;;;;;;17.50;15.50;;;;;6.46;62.87;102453.88;5065462;28;47658;-66
2023/01/28 08:17:31;;;;;;;;;30.75;24.50;;;;;6.49;62.92;102471.63;5075287;27;45857;-66
2023/01/28 08:19:56;;;;;;;;;27.25;24.00;;;;;6.56;63.16;102469.94;5069496;28;45650;-65
2023/01/28 08:22:24;;;;;;;;;25.00;20.75;;;;;6.46;62.20;102464.50;5072124;28;45426;-66
2023/01/28 08:24:49;;;;;;;;;22.00;18.25;;;;;6.36;62.58;102456.41;5077421;27;46263;-65
2023/01/28 08:27:15;;;;;;;;;25.25;22.50;;;;;6.48;62.71;102486.66;5070841;27;46646;-66
2023/01/28 08:29:40;;;;;;;;;23.25;20.50;;;;;6.45;63.19;102477.78;5076359;28;45359;-65
2023/01/28 08:32:05;;;;;;;;;32.00;25.25;;;;;6.52;63.37;102486.69;5068077;27;45394;-65
2023/01/28 08:34:31;;;;;;;;;32.25;27.75;;;;;6.46;62.41;102482.19;5066509;28;46242;-66
2023/01/28 08:36:56;;;;;;;;;26.50;22.00;;;;;6.45;62.61;102467.16;5075739;28;45688;-65
2023/01/28 08:39:22;;;;;;;;;24.75;21.00;;;;;6.45;62.22;102485.72;5060928;28;45505;-65
2023/01/28 08:41:47;;;;;;;;;27.50;21.50;;;;;6.37;61.99;102477.66;5069878;27;45387;-66
2023/01/28 08:44:13;;;;;;;;;25.75;20.75;;;;;6.44;62.62;102499.84;5074591;28;45918;-65
2023/01/28 08:46:38;;;;;;;;;23.25;16.25;;;;;6.32;61.95;102489.09;5069094;28;45351;-65
2023/01/28 08:49:03;;;;;;;;;23.00;20.00;;;;;6.30;62.40;102476.69;5069646;28;45251;-66
2023/01/28 08:51:29;;;;;;;;;23.25;19.75;;;;;6.22;62.30;102480.13;5070169;28;45512;-65
2023/01/28 08:53:54;;;;;;;;;29.50;22.50;;;;;6.27;61.94;102486.38;5059266;28;47211;-65
2023/01/28 08:56:19;;;;;;;;;26.25;19.00;;;;;6.40;62.23;102509.53;5058143;28;45248;-65
2023/01/28 08:58:45;;;;;;;;;24.25;20.25;;;;;6.27;62.19;102489.91;5072817;28;45303;-66
2023/01/28 09:01:10;;;;;;;;;22.75;16.25;;;;;6.40;61.70;102500.66;5064359;28;45491;-65
2023/01/28 09:03:35;;;;;;;;;19.50;17.75;;;;;6.32;61.78;102494.41;5068208;28;47878;-65
2023/01/28 09:06:03;;;;;;;;;26.50;22.50;;;;;6.44;61.52;102514.00;5075892;28;45601;-65
2023/01/28 09:08:28;;;;;;;;;24.75;20.00;;;;;6.33;61.39;102493.50;5069245;28;45419;-65
2023/01/28 09:10:55;;;;;;;;;20.25;15.25;;;;;6.39;61.81;102494.47;5058413;28;45461;-65
2023/01/28 09:13:21;;;;;;;;;18.25;17.50;;;;;6.54;61.85;102530.94;5065928;28;46373;-65
2023/01/28 09:15:46;;;;;;;;;23.50;20.00;;;;;6.37;61.31;102495.34;5064280;28;45346;-65
2023/01/28 09:18:12;;;;;;;;;23.75;21.00;;;;;6.52;61.74;102522.06;5058299;28;45857;-66
2023/01/28 09:20:37;;;;;;;;;23.00;20.50;;;;;6.49;61.91;102516.72;5065553;28;45426;-65
2023/01/28 09:23:02;;;;;;;;;19.75;15.50;;;;;6.55;61.58;102518.53;5085479;27;46361;-64
2023/01/28 09:25:28;;;;;;;;;27.50;24.00;;;;;6.60;62.08;102519.50;5050128;28;46144;-65
2023/01/28 09:27:53;;;;;;;;;24.00;19.25;;;;;6.63;61.70;102530.16;5064828;28;45280;-65
2023/01/28 09:30:19;;;;;;;;;24.25;19.50;;;;;6.66;61.14;102530.19;5061445;28;45475;-65
2023/01/28 09:32:48;;;;;;;;;29.25;18.50;;;;;6.67;61.64;102537.28;5064374;28;48340;-65
2023/01/28 09:35:14;;;;;;;;;20.25;18.00;;;;;6.53;61.35;102509.69;5076200;28;45716;-65
2023/01/28 09:37:39;;;;;;;;;19.50;17.75;;;;;6.61;61.32;102522.16;5078914;28;45397;-65
2023/01/28 09:40:05;;;;;;;;;23.75;19.00;;;;;6.62;61.32;102529.28;5074966;28;45530;-66
2023/01/28 09:42:58;;;;;;;;;21.75;20.00;;;;;6.46;61.43;102495.44;5080084;28;46275;-65
2023/01/28 09:45:35;;;;;;;;;19.50;19.00;;;;;6.63;61.37;102523.09;5068875;28;45757;-65
2023/01/28 09:48:03;;;;;;;;;29.50;24.00;;;;;6.70;60.93;102539.06;5059917;28;45332;-65
2023/01/28 09:50:38;;;;;;;;;21.75;19.00;;;;;6.70;60.79;102537.34;5072766;28;45333;-65
2023/01/28 09:53:15;;;;;;;;;26.75;24.50;;;;;6.69;61.26;102540.84;5061859;27;46175;-65
2023/01/28 09:56:03;;;;;;;;;23.75;22.25;;;;;6.65;61.62;102542.59;5064938;28;45750;-65
2023/01/28 09:58:29;;;;;;;;;25.00;22.00;;;;;6.50;61.40;102521.16;5070284;28;45449;-65
2023/01/28 10:00:59;;;;;;;;;22.25;20.75;;;;;6.66;60.93;102541.69;5076094;27;45444;-65
2023/01/28 10:03:33;;;;;;;;;27.75;23.75;;;;;6.59;60.81;102544.25;5070172;28;47250;-65
2023/01/28 10:06:27;;;;;;;;;26.00;23.50;;;;;6.60;61.38;102548.69;5080253;27;45709;-65
2023/01/28 10:09:04;;;;;;;;;25.00;20.25;;;;;6.55;61.18;102543.34;5072335;28;45481;-66
2023/01/28 10:11:48;;;;;;;;;22.75;21.75;;;;;6.47;61.26;102535.25;5079571;27;46085;-66
2023/01/28 10:14:54;;;;;;;;;33.25;20.50;;;;;6.58;60.94;102542.47;5072917;27;46203;-66
2023/01/28 10:17:39;;;;;;;;;19.00;18.75;;;;;6.57;61.61;102541.59;5096365;27;45490;-66
2023/01/28 10:20:20;;;;;;;;;17.25;15.25;;;;;6.61;60.43;102555.78;5074969;27;45441;-66
2023/01/28 10:22:57;;;;;;;;;22.50;16.00;;;;;6.59;60.47;102550.47;5077250;28;45574;-66
2023/01/28 10:25:26;;;;;;;;;22.25;19.00;;;;;6.48;60.24;102552.06;5078478;28;45488;-66
2023/01/28 10:27:52;;;;;;;;;19.75;19.75;;;;;6.48;59.81;102560.03;5060230;28;45504;-66
2023/01/28 10:30:21;;;;;;;;;23.75;20.00;;;;;6.43;60.17;102567.03;5069037;28;45384;-66
2023/01/28 10:33:03;;;;;;;;;19.50;18.50;;;;;6.37;60.51;102554.59;5079249;28;45759;-66
2023/01/28 10:35:34;;;;;;;;;25.50;21.00;;;;;6.35;60.88;102550.13;5077999;27;45574;-66
2023/01/28 10:38:06;;;;;;;;;25.50;20.00;;;;;6.21;60.54;102541.97;5076036;27;46185;-66
2023/01/28 10:40:31;;;;;;;;;20.00;19.50;;;;;6.39;60.59;102558.16;5074703;27;46704;-66
2023/01/28 10:42:57;;;;;;;;;21.00;18.50;;;;;6.37;60.78;102559.00;5068728;28;45662;-66
2023/01/28 10:45:27;;;;;;;;;25.00;19.75;;;;;6.29;60.46;102559.78;5069489;27;48334;-66
2023/01/28 10:48:01;;;;;;;;;21.00;19.25;;;;;6.35;59.95;102571.34;5060705;28;45943;-66
2023/01/28 10:50:29;;;;;;;;;25.75;19.00;;;;;6.39;60.21;102582.00;5065050;27;45426;-66
2023/01/28 10:53:07;;;;;;;;;23.00;19.00;;;;;6.30;60.58;102568.63;5074603;28;45556;-64
2023/01/28 10:55:53;;;;;;;;;24.75;22.00;;;;;6.36;60.26;102581.09;5067371;27;46548;-65
2023/01/28 10:58:22;;;;;;;;;20.50;17.75;;;;;6.29;60.20;102561.53;5065663;28;45445;-65
2023/01/28 11:00:58;;;;;;;;;20.75;18.75;;;;;6.37;60.05;102580.22;5046417;28;45865;-65
2023/01/28 11:03:28;;;;;;;;;27.00;22.00;;;;;6.37;60.27;102578.47;5077059;28;45583;-65
2023/01/28 11:05:54;;;;;;;;;23.50;20.00;;;;;6.41;60.68;102572.31;5076198;27;45341;-64
2023/01/28 11:08:21;;;;;;;;;29.75;24.25;;;;;6.40;60.92;102569.63;5061931;27;46033;-66
2023/01/28 11:10:47;;;;;;;;;27.00;24.75;;;;;6.06;60.13;102527.59;5071799;28;45481;-66
2023/01/28 11:13:19;;;;;;;;;24.00;21.25;;;;;6.30;60.61;102574.81;5076739;27;45429;-67
2023/01/28 11:15:48;;;;;;;;;21.00;18.25;;;;;6.29;60.68;102577.44;5066452;28;46121;-65
2023/01/28 11:18:27;;;;;;;;;25.25;23.00;;;;;6.14;61.12;102548.06;5068838;28;46075;-63
2023/01/28 11:21:07;;;;;;;;;25.00;20.50;;;;;6.18;60.89;102552.53;5069416;28;45446;-66
2023/01/28 11:23:40;;;;;;;;;22.50;19.50;;;;;6.02;61.18;102525.78;5077148;28;45516;-66
2023/01/28 11:26:13;;;;;;;;;23.00;18.50;;;;;6.22;61.01;102546.41;5069117;28;46231;-84
2023/01/28 11:28:41;;;;;;;;;19.25;17.50;;;;;6.30;60.29;102552.72;5054294;28;45456;-64
2023/01/28 11:31:11;;;;;;;;;20.50;20.50;;;;;6.25;60.41;102543.81;5059893;28;45449;-64
2023/01/28 11:33:42;;;;;;;;;19.75;18.00;;;;;6.23;60.28;102532.25;5059503;28;45489;-64
2023/01/28 11:36:13;;;;;;;;;21.75;17.25;;;;;6.35;60.62;102555.41;5071230;28;46607;-64
2023/01/28 11:38:51;;;;;;;;;27.75;19.75;;;;;6.35;60.47;102542.16;5072085;27;45851;-66
2023/01/28 11:41:17;;;;;;;;;21.25;19.75;;;;;6.38;60.48;102556.38;5066097;27;45465;-65
2023/01/28 11:43:45;;;;;;;;;20.00;20.00;;;;;6.12;60.52;102513.56;5065579;27;45559;-66
2023/01/28 11:46:42;;;;;;;;;19.75;19.50;;;;;6.23;60.92;102511.06;5078686;27;45407;-66
2023/01/28 11:49:17;;;;;;;;;20.00;14.50;;;;;6.44;61.01;102543.19;5067539;28;45876;-65
2023/01/28 11:52:04;;;;;;;;;27.00;20.75;;;;;6.45;60.64;102542.31;5079563;28;45262;-65
2023/01/28 11:54:50;;;;;;;;;24.25;24.00;;;;;6.51;60.92;102541.50;5062433;28;45473;-66